Time;durP1;ratioP1;P1;durP2;ratioP2;P2;SDS_P1;SDS_P2;PMS_P1;PMS_P2;Temp;Humidity;BMP_temperature;BMP_pressure;BME280_temperature;BME280_humidity;BME280_pressure;Samples;Min_cycle;Max_cycle;Signal;HPM_P1;HPM_P2
2023/05/20 00:00:48;;;;;;;8.75;3.30;;;;;;;16.19;45.89;102280.00;5020375;28;20092;-62
2023/05/20 00:03:16;;;;;;;8.50;3.20;;;;;;;16.14;46.07;102272.38;5025095;28;20030;-62
2023/05/20 00:05:41;;;;;;;7.78;3.33;;;;;;;16.14;46.12;102261.16;5011449;28;20041;-62
2023/05/20 00:08:08;;;;;;;7.93;3.20;;;;;;;16.20;46.11;102270.50;5026793;28;20037;-62
2023/05/20 00:10:34;;;;;;;9.20;3.65;;;;;;;16.13;46.41;102264.22;5025277;28;20156;-62
2023/05/20 00:13:00;;;;;;;9.65;3.33;;;;;;;16.13;46.45;102262.28;5012912;28;20061;-62
2023/05/20 00:15:26;;;;;;;8.10;3.20;;;;;;;16.16;46.51;102255.31;5013332;28;20073;-62
2023/05/20 00:17:51;;;;;;;9.32;3.47;;;;;;;16.13;46.87;102267.03;5012338;28;20021;-62
2023/05/20 00:20:16;;;;;;;9.20;3.63;;;;;;;16.03;47.05;102269.66;5013421;28;20030;-63
2023/05/20 00:22:42;;;;;;;8.27;3.65;;;;;;;16.06;47.15;102271.97;5028963;28;20031;-62
2023/05/20 00:25:07;;;;;;;9.38;3.67;;;;;;;16.04;47.16;102279.78;5029520;28;20040;-62
2023/05/20 00:27:33;;;;;;;6.47;3.25;;;;;;;15.97;47.58;102276.28;5031749;28;20037;-62
2023/05/20 00:29:58;;;;;;;12.98;3.53;;;;;;;16.00;47.74;102273.00;5022410;28;20481;-62
2023/05/20 00:32:23;;;;;;;8.27;3.15;;;;;;;15.89;48.14;102277.56;5029594;28;20113;-62
2023/05/20 00:34:57;;;;;;;9.30;3.88;;;;;;;15.90;47.82;102262.47;5032124;28;20034;-62
2023/05/20 00:37:22;;;;;;;6.00;3.55;;;;;;;15.89;48.02;102264.41;5032869;28;20037;-62
2023/05/20 00:39:47;;;;;;;8.25;3.80;;;;;;;15.84;48.06;102263.50;5026642;28;20452;-62
2023/05/20 00:42:25;;;;;;;9.32;3.90;;;;;;;15.86;47.97;102258.47;5022261;28;20111;-63
2023/05/20 00:44:51;;;;;;;8.73;3.75;;;;;;;15.87;48.23;102258.22;5032903;28;20026;-62
2023/05/20 00:47:18;;;;;;;7.93;3.83;;;;;;;15.77;48.44;102262.81;5027167;28;20036;-62
2023/05/20 00:49:45;;;;;;;9.25;3.90;;;;;;;15.80;48.59;102268.75;5020222;28;20049;-62
2023/05/20 00:52:11;;;;;;;10.07;4.35;;;;;;;15.68;48.94;102265.19;5015514;28;20100;-62
2023/05/20 00:54:38;;;;;;;10.63;3.28;;;;;;;15.65;48.99;102258.13;5013921;28;20424;-62
2023/05/20 00:57:06;;;;;;;7.93;3.30;;;;;;;15.71;48.70;102261.84;5012992;28;20030;-62
2023/05/20 00:59:32;;;;;;;7.47;3.95;;;;;;;15.72;49.03;102257.97;5015470;28;20047;-62
2023/05/20 01:01:58;;;;;;;8.13;3.97;;;;;;;15.74;48.81;102255.75;5029641;28;20084;-62
2023/05/20 01:04:23;;;;;;;8.88;3.88;;;;;;;15.67;49.06;102260.66;5032502;28;20831;-62
2023/05/20 01:06:49;;;;;;;8.27;3.63;;;;;;;15.69;49.08;102255.66;5019561;28;20038;-62
2023/05/20 01:09:14;;;;;;;9.77;4.15;;;;;;;15.63;49.17;102254.69;5015763;28;20064;-62
2023/05/20 01:11:58;;;;;;;8.93;3.95;;;;;;;15.70;48.82;102251.75;5020451;28;20088;-62
2023/05/20 01:14:28;;;;;;;9.05;3.90;;;;;;;15.62;49.13;102257.75;5031190;28;20025;-62
2023/05/20 01:16:57;;;;;;;11.43;4.30;;;;;;;15.52;49.52;102247.22;5009332;28;20390;-62
2023/05/20 01:19:39;;;;;;;8.13;3.60;;;;;;;15.60;49.21;102254.34;5014883;28;20084;-62
2023/05/20 01:22:07;;;;;;;7.50;3.55;;;;;;;15.44;49.74;102248.50;5015783;28;20488;-62
2023/05/20 01:24:32;;;;;;;8.00;3.92;;;;;;;15.44;49.65;102245.69;5031586;28;20555;-62
2023/05/20 01:26:58;;;;;;;8.90;3.88;;;;;;;15.48;49.69;102254.41;5030224;28;20065;-62
2023/05/20 01:29:25;;;;;;;8.88;4.20;;;;;;;15.39;49.96;102248.38;5030834;28;20500;-62
2023/05/20 01:31:52;;;;;;;9.93;4.22;;;;;;;15.46;49.65;102248.22;5018279;28;20033;-62
2023/05/20 01:34:17;;;;;;;8.98;4.25;;;;;;;15.43;49.82;102246.78;5013794;28;20065;-62
2023/05/20 01:36:45;;;;;;;11.57;4.15;;;;;;;15.31;50.07;102243.19;5027067;28;20083;-62
2023/05/20 01:39:11;;;;;;;8.93;4.00;;;;;;;15.26;50.34;102233.88;5020398;28;20108;-62
2023/05/20 01:41:37;;;;;;;8.77;3.97;;;;;;;15.28;50.09;102240.91;5028732;28;20030;-62
2023/05/20 01:44:02;;;;;;;9.43;4.25;;;;;;;15.28;50.42;102234.44;5022842;28;20033;-62
2023/05/20 01:46:32;;;;;;;9.30;3.90;;;;;;;15.30;50.36;102238.72;5020788;28;20033;-62
2023/05/20 01:48:57;;;;;;;8.77;4.13;;;;;;;15.35;50.25;102229.56;5011004;28;20145;-61
2023/05/20 01:51:22;;;;;;;7.72;4.22;;;;;;;15.35;50.08;102233.19;5016443;28;20120;-62
2023/05/20 01:53:48;;;;;;;8.68;4.03;;;;;;;15.32;50.29;102230.06;5011787;28;20477;-62
2023/05/20 01:56:13;;;;;;;7.28;3.92;;;;;;;15.35;49.95;102222.00;5011466;28;20030;-63
2023/05/20 01:58:38;;;;;;;12.55;5.03;;;;;;;15.35;50.14;102223.97;5010460;28;20108;-62
2023/05/20 02:01:03;;;;;;;8.60;4.20;;;;;;;15.34;50.31;102225.91;5027293;28;20143;-62
2023/05/20 02:03:29;;;;;;;10.93;4.40;;;;;;;15.30;50.10;102233.13;5012962;28;20486;-62
2023/05/20 02:05:54;;;;;;;7.05;4.05;;;;;;;15.30;50.44;102224.72;5010950;28;20033;-62
2023/05/20 02:08:19;;;;;;;7.25;4.10;;;;;;;15.17;50.59;102228.69;5009489;28;20129;-62
2023/05/20 02:10:47;;;;;;;9.35;4.10;;;;;;;15.13;51.02;102226.63;5023204;28;20033;-62
2023/05/20 02:13:12;;;;;;;7.95;4.28;;;;;;;15.11;51.01;102224.06;5030018;28;20112;-62
2023/05/20 02:15:40;;;;;;;10.88;4.47;;;;;;;15.00;51.37;102221.34;5023566;28;20472;-62
2023/05/20 02:18:07;;;;;;;10.75;4.13;;;;;;;15.04;51.34;102222.53;5022265;28;20065;-62
2023/05/20 02:20:35;;;;;;;11.88;5.00;;;;;;;14.95;51.51;102227.69;5026931;28;20045;-62
2023/05/20 02:23:00;;;;;;;7.53;4.30;;;;;;;14.89;51.67;102226.72;5031370;28;20025;-62
2023/05/20 02:25:25;;;;;;;6.97;4.28;;;;;;;14.93;51.59;102225.16;5022610;28;20465;-62
2023/05/20 02:27:50;;;;;;;10.30;4.20;;;;;;;14.92;51.63;102214.19;5011754;28;20056;-62
2023/05/20 02:30:16;;;;;;;8.02;4.47;;;;;;;14.94;51.71;102217.59;5010711;28;20384;-62
2023/05/20 02:32:42;;;;;;;8.20;4.60;;;;;;;14.97;51.66;102211.50;5016188;28;20025;-62
2023/05/20 02:35:07;;;;;;;9.25;4.65;;;;;;;14.91;52.09;102209.72;5027048;28;20025;-62
2023/05/20 02:37:33;;;;;;;10.80;4.50;;;;;;;14.97;51.64;102211.50;5017242;28;20037;-62
2023/05/20 02:39:58;;;;;;;7.43;4.60;;;;;;;14.91;52.08;102213.34;5018991;28;20647;-62
2023/05/20 02:42:23;;;;;;;9.73;4.47;;;;;;;14.92;52.10;102212.25;5025372;28;20049;-62
2023/05/20 02:44:49;;;;;;;10.32;4.65;;;;;;;14.92;51.74;102215.03;5018676;28;20033;-62
2023/05/20 02:47:14;;;;;;;7.50;4.20;;;;;;;14.84;52.11;102215.44;5020826;28;20468;-62
2023/05/20 02:49:40;;;;;;;9.95;4.82;;;;;;;14.81;52.35;102210.34;5029885;28;20492;-62
2023/05/20 02:52:06;;;;;;;6.07;4.72;;;;;;;14.83;52.44;102210.09;5025363;28;20033;-62
2023/05/20 02:54:31;;;;;;;6.50;4.40;;;;;;;14.77;52.50;102206.34;5025082;28;20421;-62
2023/05/20 02:56:56;;;;;;;9.50;4.55;;;;;;;14.71;52.57;102208.19;5013290;28;20021;-62
2023/05/20 02:59:22;;;;;;;11.02;4.90;;;;;;;14.68;52.99;102210.63;5026849;28;20084;-62
2023/05/20 03:01:47;;;;;;;11.43;5.65;;;;;;;14.62;52.86;102209.69;5010049;28;20030;-62
2023/05/20 03:04:12;;;;;;;7.00;4.00;;;;;;;14.62;53.13;102209.69;5010053;28;20041;-62
2023/05/20 03:06:43;;;;;;;8.43;4.55;;;;;;;14.60;53.08;102211.88;5015301;28;20477;-62
2023/05/20 03:09:08;;;;;;;8.13;5.22;;;;;;;14.57;53.39;102206.75;5009843;28;20046;-62
2023/05/20 03:11:34;;;;;;;9.25;4.57;;;;;;;14.51;53.65;102206.94;5019927;28;20026;-62
2023/05/20 03:13:59;;;;;;;8.73;5.07;;;;;;;14.58;53.56;102213.19;5018107;28;20021;-62
2023/05/20 03:16:26;;;;;;;9.13;4.60;;;;;;;14.55;53.71;102205.34;5008987;28;20052;-62
2023/05/20 03:18:53;;;;;;;11.70;4.90;;;;;;;14.44;53.86;102213.44;5015108;28;20049;-62
2023/05/20 03:21:19;;;;;;;7.60;4.50;;;;;;;14.51;53.97;102206.94;5016768;28;20025;-62
2023/05/20 03:23:44;;;;;;;8.80;4.80;;;;;;;14.49;53.52;102201.56;5015512;28;20032;-62
2023/05/20 03:26:10;;;;;;;9.63;4.93;;;;;;;14.46;54.13;102204.81;5028184;28;20261;-61
2023/05/20 03:28:35;;;;;;;11.50;4.50;;;;;;;14.44;54.20;102191.09;5028823;28;20038;-62
2023/05/20 03:31:01;;;;;;;11.48;5.00;;;;;;;14.44;54.12;102202.28;5029820;28;20045;-62
2023/05/20 03:33:27;;;;;;;8.88;4.78;;;;;;;14.49;53.84;102210.78;5021452;28;20025;-62
2023/05/20 03:35:52;;;;;;;9.25;4.88;;;;;;;14.35;54.28;102214.09;5029080;28;20055;-62
2023/05/20 03:38:18;;;;;;;7.00;4.40;;;;;;;14.33;54.22;102208.72;5018795;28;20036;-62
2023/05/20 03:40:43;;;;;;;9.52;4.88;;;;;;;14.30;54.79;102209.22;5025601;28;20388;-62
2023/05/20 03:43:08;;;;;;;10.23;4.95;;;;;;;14.29;54.55;102210.31;5028624;28;20033;-62
2023/05/20 03:45:33;;;;;;;12.45;4.80;;;;;;;14.34;54.72;102209.56;5026576;28;20117;-62
2023/05/20 03:47:59;;;;;;;9.07;4.97;;;;;;;14.30;54.52;102206.41;5012195;28;20061;-62
2023/05/20 03:50:24;;;;;;;10.35;5.22;;;;;;;14.33;54.47;102205.94;5010532;28;20045;-62
2023/05/20 03:52:49;;;;;;;8.18;5.00;;;;;;;14.34;54.50;102202.03;5009714;28;20466;-62
2023/05/20 03:55:15;;;;;;;11.13;4.80;;;;;;;14.35;54.50;102200.97;5018927;28;20033;-62
2023/05/20 03:57:41;;;;;;;12.15;5.20;;;;;;;14.27;55.14;102201.34;5025341;28;20037;-62
2023/05/20 04:00:10;;;;;;;9.48;5.30;;;;;;;14.28;54.88;102200.25;5015472;28;20129;-62
2023/05/20 04:02:37;;;;;;;9.07;5.22;;;;;;;14.32;54.99;102200.59;5028041;28;20024;-62
2023/05/20 04:05:03;;;;;;;11.30;5.50;;;;;;;14.28;55.20;102191.88;5022902;28;20490;-62
2023/05/20 04:07:28;;;;;;;8.20;4.85;;;;;;;14.24;55.39;102202.69;5028606;28;20120;-62
2023/05/20 04:09:54;;;;;;;7.97;4.72;;;;;;;14.31;55.18;102205.34;5025430;28;20044;-62
2023/05/20 04:12:19;;;;;;;9.27;5.28;;;;;;;14.29;55.16;102199.16;5015483;28;20036;-62
2023/05/20 04:14:44;;;;;;;8.70;4.90;;;;;;;14.25;55.24;102204.38;5029384;28;20089;-62
2023/05/20 04:17:10;;;;;;;8.50;5.00;;;;;;;14.19;55.59;102210.09;5030799;28;20036;-62
2023/05/20 04:19:37;;;;;;;13.15;5.13;;;;;;;14.25;55.38;102209.94;5028595;28;20059;-62
2023/05/20 04:22:03;;;;;;;7.13;5.22;;;;;;;14.19;55.70;102205.38;5024126;28;20076;-62
2023/05/20 04:24:28;;;;;;;9.13;5.07;;;;;;;14.19;55.75;102210.09;5017130;28;20087;-62
2023/05/20 04:26:53;;;;;;;8.95;4.63;;;;;;;14.19;55.56;102208.16;5026705;28;20036;-62
2023/05/20 04:29:20;;;;;;;11.10;5.07;;;;;;;14.15;56.05;102220.91;5032310;28;20029;-62
2023/05/20 04:31:45;;;;;;;8.07;5.45;;;;;;;14.14;56.04;102207.16;5030083;28;20137;-63
2023/05/20 04:34:11;;;;;;;8.25;5.20;;;;;;;14.18;55.80;102219.56;5029387;28;20112;-62
2023/05/20 04:36:37;;;;;;;12.90;5.53;;;;;;;14.23;56.00;102211.31;5016834;28;20129;-62
2023/05/20 04:39:03;;;;;;;8.95;5.05;;;;;;;14.28;55.46;102208.63;5013456;28;20034;-62
2023/05/20 04:41:30;;;;;;;11.25;5.43;;;;;;;14.25;56.21;102215.53;5018997;28;20043;-62
2023/05/20 04:43:59;;;;;;;10.25;5.25;;;;;;;14.28;55.94;102202.19;5029969;28;20069;-63
2023/05/20 04:46:25;;;;;;;9.18;4.82;;;;;;;14.32;55.47;102203.41;5024614;28;20022;-63
2023/05/20 04:48:51;;;;;;;7.68;4.82;;;;;;;14.28;56.10;102207.78;5015656;28;20049;-63
2023/05/20 04:51:16;;;;;;;9.60;5.32;;;;;;;14.32;56.17;102214.56;5021592;28;20466;-62
2023/05/20 04:53:42;;;;;;;10.82;4.90;;;;;;;14.37;55.99;102209.94;5011156;28;20029;-63
2023/05/20 04:56:07;;;;;;;10.23;5.28;;;;;;;14.42;56.07;102212.88;5021167;28;20029;-63
2023/05/20 04:58:33;;;;;;;8.48;5.65;;;;;;;14.44;55.58;102210.66;5027683;28;20037;-63
2023/05/20 05:00:58;;;;;;;11.23;5.32;;;;;;;14.43;56.21;102214.56;5014739;28;20462;-63
2023/05/20 05:03:23;;;;;;;8.40;5.68;;;;;;;14.43;55.62;102208.13;5021563;28;20068;-63
2023/05/20 05:05:49;;;;;;;8.65;5.50;;;;;;;14.38;56.27;102208.88;5019823;28;20112;-63
2023/05/20 05:08:16;;;;;;;8.77;5.75;;;;;;;14.42;55.99;102204.47;5015129;28;20077;-63
2023/05/20 05:10:41;;;;;;;9.45;5.55;;;;;;;14.44;55.91;102201.44;5016492;28;20033;-63
2023/05/20 05:13:06;;;;;;;10.23;5.32;;;;;;;14.41;56.17;102197.19;5012802;28;20038;-62
2023/05/20 05:15:31;;;;;;;9.38;5.70;;;;;;;14.43;56.17;102189.41;5010774;28;20318;-64
2023/05/20 05:17:57;;;;;;;7.75;5.65;;;;;;;14.48;56.13;102199.84;5026526;28;20827;-63
2023/05/20 05:20:23;;;;;;;10.02;5.53;;;;;;;14.45;56.15;102192.78;5019620;28;20033;-63
2023/05/20 05:22:49;;;;;;;7.63;5.63;;;;;;;14.53;56.34;102193.53;5019263;28;20499;-63
2023/05/20 05:25:15;;;;;;;9.60;5.75;;;;;;;14.56;55.97;102193.06;5013940;28;20374;-64
2023/05/20 05:27:40;;;;;;;9.15;5.50;;;;;;;14.55;56.08;102189.41;5029905;28;20041;-63
2023/05/20 05:30:06;;;;;;;6.38;5.00;;;;;;;14.59;56.41;102196.22;5018120;28;20070;-63
2023/05/20 05:32:32;;;;;;;11.80;5.22;;;;;;;14.64;55.95;102196.31;5017842;28;20029;-62
2023/05/20 05:34:58;;;;;;;11.88;5.65;;;;;;;14.71;55.87;102197.00;5017313;28;20037;-62
2023/05/20 05:37:23;;;;;;;6.22;5.07;;;;;;;14.74;56.03;102195.69;5010562;28;20449;-63
2023/05/20 05:39:49;;;;;;;7.57;4.90;;;;;;;14.80;55.86;102194.66;5028156;28;20167;-63
2023/05/20 05:42:14;;;;;;;9.07;5.03;;;;;;;14.86;55.70;102188.09;5028855;28;20022;-63
2023/05/20 05:44:40;;;;;;;10.70;5.25;;;;;;;14.94;55.40;102190.50;5029816;28;20064;-63
2023/05/20 05:47:05;;;;;;;10.23;5.20;;;;;;;14.97;55.75;102181.59;5020616;28;20061;-63
2023/05/20 05:49:32;;;;;;;7.40;4.68;;;;;;;15.02;55.51;102191.19;5022879;28;20109;-62
2023/05/20 05:51:57;;;;;;;9.00;5.13;;;;;;;15.10;55.38;102188.00;5012092;28;20030;-62
2023/05/20 05:54:23;;;;;;;9.05;5.20;;;;;;;15.08;55.52;102188.22;5010532;28;20045;-63
2023/05/20 05:56:50;;;;;;;7.20;5.40;;;;;;;15.09;55.15;102191.84;5011954;28;20034;-62
2023/05/20 05:59:15;;;;;;;6.40;5.00;;;;;;;15.13;55.02;102199.53;5030755;28;20469;-63
2023/05/20 06:01:40;;;;;;;9.40;5.18;;;;;;;15.18;55.08;102194.00;5016333;28;20033;-62
2023/05/20 06:04:06;;;;;;;8.48;4.88;;;;;;;15.25;55.07;102195.78;5030484;28;20067;-62
2023/05/20 06:06:32;;;;;;;7.20;4.85;;;;;;;15.38;55.03;102195.50;5026188;28;20065;-62
2023/05/20 06:08:58;;;;;;;9.23;5.07;;;;;;;15.39;55.20;102200.81;5011422;28;20038;-62
2023/05/20 06:11:23;;;;;;;8.50;5.38;;;;;;;15.43;54.16;102190.81;5012456;28;20500;-62
2023/05/20 06:13:49;;;;;;;12.27;5.35;;;;;;;15.43;54.12;102199.22;5020021;28;20025;-62
2023/05/20 06:16:15;;;;;;;7.18;5.00;;;;;;;15.40;54.56;102188.50;5018640;28;20053;-62
2023/05/20 06:18:40;;;;;;;11.07;5.28;;;;;;;15.49;54.75;102188.13;5012800;28;20037;-62
2023/05/20 06:21:06;;;;;;;7.45;5.15;;;;;;;15.57;54.42;102184.91;5028849;28;20054;-62
2023/05/20 06:23:31;;;;;;;7.03;4.88;;;;;;;15.62;54.56;102180.22;5029142;28;20029;-62
2023/05/20 06:25:58;;;;;;;7.93;5.13;;;;;;;15.65;54.11;102179.75;5027648;28;20044;-62
2023/05/20 06:28:23;;;;;;;7.88;5.32;;;;;;;15.70;54.14;102177.03;5026131;28;20033;-62
2023/05/20 06:30:49;;;;;;;8.52;5.35;;;;;;;15.74;53.99;102176.53;5018013;28;20076;-63
2023/05/20 06:33:14;;;;;;;8.65;4.80;;;;;;;15.79;53.37;102174.63;5018916;28;20037;-63
2023/05/20 06:35:39;;;;;;;6.93;4.70;;;;;;;15.85;53.15;102164.38;5010943;28;20030;-62
2023/05/20 06:38:04;;;;;;;7.57;4.75;;;;;;;15.96;53.61;102166.25;5010958;28;20034;-63
2023/05/20 06:40:30;;;;;;;7.30;4.95;;;;;;;16.04;53.13;102165.81;5015947;28;20118;-62
2023/05/20 06:42:55;;;;;;;8.35;4.53;;;;;;;16.08;53.20;102168.94;5012082;28;20104;-62
2023/05/20 06:45:20;;;;;;;7.68;4.47;;;;;;;16.10;52.71;102156.34;5018954;28;20026;-62
2023/05/20 06:47:47;;;;;;;6.97;4.47;;;;;;;16.16;53.13;102155.31;5013037;28;20033;-63
2023/05/20 06:50:13;;;;;;;8.48;4.68;;;;;;;16.19;52.43;102156.75;5022112;28;20469;-62
2023/05/20 06:52:38;;;;;;;6.65;4.93;;;;;;;16.23;52.71;102157.06;5014957;28;20044;-62
2023/05/20 06:55:04;;;;;;;9.75;4.93;;;;;;;16.31;52.59;102149.09;5017430;28;20027;-62
2023/05/20 06:57:29;;;;;;;7.43;4.60;;;;;;;16.33;51.75;102151.63;5028483;28;20052;-63
2023/05/20 06:59:55;;;;;;;9.18;3.90;;;;;;;16.37;52.11;102148.03;5028664;28;20552;-62
2023/05/20 07:02:21;;;;;;;8.65;4.30;;;;;;;16.47;52.16;102150.13;5027794;28;20029;-62
2023/05/20 07:04:46;;;;;;;8.07;4.70;;;;;;;16.56;52.11;102144.91;5022326;28;20041;-62
2023/05/20 07:07:11;;;;;;;8.98;4.35;;;;;;;16.64;51.96;102141.63;5022029;28;20026;-62
2023/05/20 07:09:36;;;;;;;6.25;4.38;;;;;;;16.74;52.00;102135.31;5011289;28;20037;-62
2023/05/20 07:12:02;;;;;;;11.30;3.97;;;;;;;16.79;50.76;102133.44;5012923;28;20549;-62
2023/05/20 07:14:27;;;;;;;6.93;4.18;;;;;;;16.83;51.09;102134.59;5013534;28;20033;-62
2023/05/20 07:16:53;;;;;;;5.57;3.90;;;;;;;16.88;50.16;102143.06;5018267;28;20038;-62
2023/05/20 07:19:18;;;;;;;7.47;4.03;;;;;;;16.87;49.41;102130.16;5010778;28;20048;-62
2023/05/20 07:21:43;;;;;;;5.38;3.78;;;;;;;16.92;49.69;102132.16;5007601;28;20026;-63
2023/05/20 07:24:08;;;;;;;5.43;3.42;;;;;;;16.96;49.79;102130.50;5023810;28;20103;-62
2023/05/20 07:26:35;;;;;;;8.32;3.80;;;;;;;17.05;49.81;102125.25;5021896;28;20044;-62
2023/05/20 07:29:02;;;;;;;6.03;3.88;;;;;;;17.10;48.78;102125.34;5022462;28;20026;-62
2023/05/20 07:31:27;;;;;;;6.57;3.70;;;;;;;17.09;48.64;102127.25;5009589;28;20057;-63
2023/05/20 07:33:53;;;;;;;4.35;3.45;;;;;;;17.12;48.82;102128.69;5014255;28;20456;-62
2023/05/20 07:36:18;;;;;;;6.28;3.65;;;;;;;17.19;48.96;102120.91;5014176;28;20038;-63
2023/05/20 07:38:43;;;;;;;6.05;3.95;;;;;;;17.21;48.77;102124.28;5009588;28;20026;-62
2023/05/20 07:41:10;;;;;;;4.53;3.35;;;;;;;17.25;49.16;102128.28;5023457;28;20505;-62
2023/05/20 07:43:35;;;;;;;4.63;3.90;;;;;;;17.30;48.22;102121.88;5016189;28;20045;-62
2023/05/20 07:46:01;;;;;;;5.18;3.92;;;;;;;17.34;48.15;102120.22;5029741;28;20492;-62
2023/05/20 07:48:26;;;;;;;5.07;4.10;;;;;;;17.40;48.20;102116.31;5029591;28;20084;-62
2023/05/20 07:50:52;;;;;;;6.25;3.80;;;;;;;17.47;48.19;102121.72;5029447;28;20022;-62
2023/05/20 07:53:17;;;;;;;11.00;3.75;;;;;;;17.53;48.07;102117.84;5027982;28;20030;-62
2023/05/20 07:55:42;;;;;;;5.85;3.60;;;;;;;17.60;47.88;102119.28;5013060;28;20061;-62
2023/05/20 07:58:08;;;;;;;5.30;3.63;;;;;;;17.67;48.20;102105.00;5012661;28;20034;-62
2023/05/20 08:00:33;;;;;;;5.13;3.58;;;;;;;17.73;47.40;102117.97;5013745;28;20809;-61
2023/05/20 08:02:58;;;;;;;10.02;3.92;;;;;;;17.72;47.23;102116.28;5015352;28;20084;-62
2023/05/20 08:05:24;;;;;;;8.95;3.70;;;;;;;17.75;47.07;102109.31;5011244;28;20030;-62
2023/05/20 08:07:49;;;;;;;9.13;4.05;;;;;;;17.79;46.64;102110.47;5028255;28;20882;-62
2023/05/20 08:10:15;;;;;;;9.07;3.38;;;;;;;17.81;46.40;102111.88;5031342;28;20108;-62
2023/05/20 08:12:40;;;;;;;6.70;4.30;;;;;;;17.80;46.29;102096.16;5030929;28;20061;-62
2023/05/20 08:15:06;;;;;;;4.78;3.42;;;;;;;17.84;46.15;102100.13;5031166;28;20137;-62
2023/05/20 08:17:32;;;;;;;5.97;3.78;;;;;;;17.82;46.10;102099.53;5031602;28;20043;-61
2023/05/20 08:19:57;;;;;;;6.40;3.88;;;;;;;17.88;46.15;102106.00;5026269;28;20392;-62
2023/05/20 08:22:23;;;;;;;6.97;4.03;;;;;;;17.96;46.42;102101.84;5017759;28;20048;-63
2023/05/20 08:24:49;;;;;;;7.07;3.67;;;;;;;18.03;45.94;102091.22;5023186;28;20037;-63
2023/05/20 08:27:14;;;;;;;6.95;4.28;;;;;;;18.06;45.44;102096.28;5019672;28;20045;-63
2023/05/20 08:29:39;;;;;;;5.70;3.63;;;;;;;18.10;45.87;102094.63;5015788;28;20038;-63
2023/05/20 08:32:05;;;;;;;6.97;3.80;;;;;;;18.12;45.68;102078.34;5011294;28;20030;-63
2023/05/20 08:34:30;;;;;;;10.75;3.83;;;;;;;18.17;44.64;102083.13;5013463;28;20034;-63
2023/05/20 08:36:56;;;;;;;7.13;4.22;;;;;;;18.19;45.98;102078.06;5011704;28;20069;-63
2023/05/20 08:39:22;;;;;;;5.57;3.85;;;;;;;18.24;45.02;102080.94;5013581;28;20033;-63
2023/05/20 08:41:47;;;;;;;5.13;3.67;;;;;;;18.25;44.99;102077.00;5011616;28;20120;-63
2023/05/20 08:44:12;;;;;;;5.43;4.10;;;;;;;18.30;45.04;102089.09;5012150;28;20108;-63
2023/05/20 08:46:39;;;;;;;8.50;3.60;;;;;;;18.29;44.34;102086.56;5011290;28;20034;-63
2023/05/20 08:49:05;;;;;;;10.27;3.85;;;;;;;18.31;44.57;102078.69;5011116;28;20036;-63
2023/05/20 08:51:32;;;;;;;7.38;4.20;;;;;;;18.33;43.95;102074.50;5010954;28;20038;-63
2023/05/20 08:54:01;;;;;;;7.53;4.45;;;;;;;18.38;44.38;102084.91;5011725;28;20385;-63
2023/05/20 08:56:27;;;;;;;5.03;2.80;;;;;;;18.58;48.20;102070.91;5027911;28;20095;-62
2023/05/20 08:58:52;;;;;;;6.38;4.20;;;;;;;18.58;44.88;102076.53;5021821;28;20477;-63
2023/05/20 09:01:18;;;;;;;8.40;3.90;;;;;;;18.67;45.00;102084.41;5018211;28;20481;-63
2023/05/20 09:03:44;;;;;;;6.43;3.20;;;;;;;18.79;46.33;102071.84;5025303;28;20055;-63
2023/05/20 09:06:15;;;;;;;4.25;2.55;;;;;;;18.95;46.40;102074.66;5025992;28;20056;-63
2023/05/20 09:08:41;;;;;;;5.72;3.63;;;;;;;19.00;44.88;102078.31;5013774;28;20532;-62
2023/05/20 09:11:09;;;;;;;6.18;3.72;;;;;;;19.01;43.36;102074.38;5011581;28;20489;-62
2023/05/20 09:13:34;;;;;;;5.13;2.90;;;;;;;19.04;43.31;102071.00;5010600;28;20037;-62
2023/05/20 09:16:00;;;;;;;5.57;3.25;;;;;;;19.03;43.27;102060.88;5011085;28;20042;-62
2023/05/20 09:18:26;;;;;;;8.63;3.25;;;;;;;19.05;43.42;102061.44;5026701;28;20616;-62
2023/05/20 09:20:54;;;;;;;5.40;3.30;;;;;;;19.04;42.94;102064.53;5017762;28;20029;-62
2023/05/20 09:23:23;;;;;;;6.18;2.95;;;;;;;19.00;42.30;102057.78;5012888;28;20033;-62
2023/05/20 09:25:52;;;;;;;8.60;2.90;;;;;;;19.01;42.68;102053.84;5011826;28;20034;-62
2023/05/20 09:28:26;;;;;;;9.73;3.83;;;;;;;19.05;43.14;102057.78;5014774;28;20028;-62
2023/05/20 09:30:57;;;;;;;5.72;3.40;;;;;;;19.07;43.06;102052.72;5012298;28;20482;-62
2023/05/20 09:33:26;;;;;;;6.22;3.75;;;;;;;19.11;42.81;102056.66;5016881;28;20040;-62
2023/05/20 09:35:52;;;;;;;7.88;3.72;;;;;;;19.20;42.65;102049.34;5027179;28;20029;-61
2023/05/20 09:38:18;;;;;;;6.10;2.90;;;;;;;19.27;42.94;102055.53;5014124;28;20048;-61
2023/05/20 09:40:45;;;;;;;11.20;3.60;;;;;;;19.35;42.28;102059.75;5026351;28;20045;-61
2023/05/20 09:43:11;;;;;;;7.72;3.53;;;;;;;19.32;42.20;102058.31;5007119;28;20497;-61
2023/05/20 09:45:37;;;;;;;6.25;3.90;;;;;;;19.34;42.37;102053.28;5011059;28;20068;-62
2023/05/20 09:48:04;;;;;;;7.85;3.95;;;;;;;19.40;43.07;102061.69;5017885;28;20036;-62
2023/05/20 09:50:30;;;;;;;5.82;4.18;;;;;;;19.43;42.57;102061.13;5012616;28;20037;-62
2023/05/20 09:53:01;;;;;;;7.90;3.80;;;;;;;19.44;42.28;102058.03;5025808;28;20091;-62
2023/05/20 09:55:26;;;;;;;6.70;3.50;;;;;;;19.37;42.70;102052.72;5018421;28;20385;-62
2023/05/20 09:57:53;;;;;;;5.97;3.40;;;;;;;19.43;43.39;102066.78;5016218;28;20037;-64
2023/05/20 10:00:19;;;;;;;8.27;4.50;;;;;;;19.38;43.15;102054.41;5018038;28;20033;-64
2023/05/20 10:02:46;;;;;;;5.38;3.85;;;;;;;19.40;42.84;102053.25;5026179;28;20037;-63
2023/05/20 10:05:19;;;;;;;9.00;3.85;;;;;;;19.37;42.95;102041.44;5028980;28;20041;-64
2023/05/20 10:08:24;;;;;;;5.00;3.70;;;;;;;19.44;43.13;102043.13;5017265;28;20393;-65
2023/05/20 10:10:49;;;;;;;5.43;3.95;;;;;;;19.40;43.06;102040.00;5010626;28;20030;-64
2023/05/20 10:13:44;;;;;;;5.32;3.97;;;;;;;19.41;43.08;102032.41;5012610;28;20052;-64
2023/05/20 10:16:30;;;;;;;6.18;3.35;;;;;;;19.47;42.91;102032.13;5020607;28;20129;-65
2023/05/20 10:19:30;;;;;;;5.93;3.47;;;;;;;19.48;42.65;102033.81;5009359;28;20026;-63
2023/05/20 10:22:07;;;;;;;6.18;3.40;;;;;;;19.43;42.58;102027.34;5009885;28;20049;-64
2023/05/20 10:24:42;;;;;;;4.68;3.10;;;;;;;19.50;42.68;102034.38;5024551;28;20033;-69
2023/05/20 10:27:14;;;;;;;3.47;2.90;;;;;;;19.55;43.50;102022.25;5019647;28;20029;-65
2023/05/20 10:29:50;;;;;;;4.40;3.38;;;;;;;19.52;42.20;102023.66;5015768;28;20033;-66
2023/05/20 10:32:36;;;;;;;7.95;3.33;;;;;;;19.41;41.94;102010.72;5005974;28;20033;-64
2023/05/20 10:35:03;;;;;;;5.15;3.38;;;;;;;19.42;42.01;102008.78;5009474;28;20319;-64
2023/05/20 10:37:39;;;;;;;4.93;2.97;;;;;;;19.45;43.00;102006.22;5021732;28;20056;-62
2023/05/20 10:40:06;;;;;;;5.53;3.42;;;;;;;19.51;41.48;102015.50;5016536;28;20021;-67
2023/05/20 10:42:32;;;;;;;5.63;3.30;;;;;;;19.57;41.38;101995.50;5016291;28;20025;-62
2023/05/20 10:44:57;;;;;;;6.43;3.50;;;;;;;19.60;41.59;102005.34;5013463;28;20440;-63
2023/05/20 10:47:23;;;;;;;8.95;3.00;;;;;;;19.63;41.92;101985.09;5018748;28;20030;-60
2023/05/20 10:49:48;;;;;;;4.50;2.35;;;;;;;19.75;42.58;101987.59;5009298;28;20059;-63
2023/05/20 10:52:16;;;;;;;6.68;3.28;;;;;;;19.71;41.00;101989.28;5009259;28;20370;-63
2023/05/20 10:55:17;;;;;;;4.25;2.70;;;;;;;19.73;42.23;101996.34;5019474;28;20033;-63
2023/05/20 10:57:44;;;;;;;3.93;3.10;;;;;;;19.71;41.39;102006.19;5013203;28;20029;-63
2023/05/20 11:00:11;;;;;;;4.63;3.63;;;;;;;19.73;41.71;101996.34;5008395;28;20034;-63
2023/05/20 11:02:37;;;;;;;6.70;3.00;;;;;;;19.78;42.25;101992.66;5008467;28;20153;-64
2023/05/20 11:05:03;;;;;;;7.18;3.38;;;;;;;19.85;42.44;101987.56;5008919;28;20076;-63
2023/05/20 11:07:30;;;;;;;6.07;2.97;;;;;;;19.98;41.75;101980.44;5026500;28;20478;-63
2023/05/20 11:09:57;;;;;;;6.18;3.13;;;;;;;20.06;42.17;101962.94;5025408;28;20511;-63
2023/05/20 11:12:24;;;;;;;7.00;3.88;;;;;;;20.17;41.67;101975.00;5023167;28;20030;-63
2023/05/20 11:14:50;;;;;;;4.78;3.25;;;;;;;20.17;41.89;101973.00;5008392;28;20050;-63
2023/05/20 11:17:18;;;;;;;4.88;3.53;;;;;;;20.16;40.71;101970.47;5020824;28;20076;-63
2023/05/20 11:19:43;;;;;;;4.95;3.13;;;;;;;20.13;41.07;101976.72;5018805;28;20116;-63
2023/05/20 11:22:08;;;;;;;5.78;3.08;;;;;;;20.10;41.93;101967.69;5008712;28;20109;-63